createdAt,value
2023-02-06T00:02:04.857Z,102936.24
2023-02-06T00:04:35.830Z,102934.27
2023-02-06T00:07:08.070Z,102928.05
2023-02-06T00:09:38.660Z,102919.73
2023-02-06T00:12:11.846Z,102925.04
2023-02-06T00:14:42.438Z,102925.68
2023-02-06T00:17:13.066Z,102929.92
2023-02-06T00:19:45.020Z,102921.66
2023-02-06T00:22:16.105Z,102921.52
2023-02-06T00:24:50.059Z,102926.61
2023-02-06T00:27:20.574Z,102921.39
2023-02-06T00:29:54.179Z,102915.84
2023-02-06T00:32:24.637Z,102912.77
2023-02-06T00:34:55.138Z,102917.09
2023-02-06T00:37:26.841Z,102914.65
2023-02-06T00:39:58.686Z,102915.55
2023-02-06T00:42:30.612Z,102912.45
2023-02-06T00:45:01.198Z,102916.55
2023-02-06T00:47:35.734Z,102917.51
2023-02-06T00:50:08.995Z,102915.81
2023-02-06T00:52:39.357Z,102913.20
2023-02-06T00:55:10.396Z,102910.69
2023-02-06T00:57:41.728Z,102903.29
2023-02-06T01:00:14.612Z,102898.12
2023-02-06T01:02:47.107Z,102896.48
2023-02-06T01:05:17.838Z,102897.02
2023-02-06T01:07:48.272Z,102901.38
2023-02-06T01:10:18.948Z,102903.71
2023-02-06T01:12:49.402Z,102901.11
2023-02-06T01:15:20.114Z,102902.92
2023-02-06T01:17:50.661Z,102903.44
2023-02-06T01:20:22.017Z,102908.97
2023-02-06T01:22:53.058Z,102909.30
2023-02-06T01:25:23.828Z,102913.10
2023-02-06T01:27:54.523Z,102914.86
2023-02-06T01:30:25.430Z,102915.73
2023-02-06T01:32:56.125Z,102914.29
2023-02-06T01:35:27.378Z,102912.56
2023-02-06T01:37:57.722Z,102910.86
2023-02-06T01:40:28.479Z,102906.00
2023-02-06T01:43:02.543Z,102906.52
2023-02-06T01:45:44.522Z,102906.45
2023-02-06T01:48:29.176Z,102907.02
2023-02-06T01:51:00.467Z,102906.45
2023-02-06T01:53:37.804Z,102904.61
2023-02-06T01:56:10.905Z,102904.30
2023-02-06T01:58:47.814Z,102904.46
2023-02-06T02:01:19.014Z,102897.77
2023-02-06T02:03:52.124Z,102898.39
2023-02-06T02:06:27.143Z,102902.23
2023-02-06T02:08:59.522Z,102900.77
2023-02-06T02:18:05.118Z,102881.42
2023-02-06T02:21:13.238Z,102873.00
2023-02-06T02:24:19.053Z,102879.55
2023-02-06T02:27:16.030Z,102877.67
2023-02-06T02:30:03.393Z,102875.55
2023-02-06T02:32:40.106Z,102872.52
2023-02-06T02:35:31.261Z,102874.23
2023-02-06T02:38:26.833Z,102869.02
2023-02-06T02:41:39.205Z,102872.45
2023-02-06T02:44:14.461Z,102870.07
2023-02-06T02:46:54.173Z,102871.58
2023-02-06T02:49:29.423Z,102870.79
2023-02-06T02:52:02.306Z,102868.16
2023-02-06T02:54:33.082Z,102862.90
2023-02-06T02:57:10.905Z,102852.89
2023-02-06T02:59:46.856Z,102851.03
2023-02-06T03:02:27.853Z,102863.33
2023-02-06T03:05:04.735Z,102860.09
2023-02-06T03:07:42.635Z,102851.34
2023-02-06T03:10:41.884Z,102847.59
2023-02-06T03:13:33.623Z,102842.43
2023-02-06T03:16:19.981Z,102845.06
2023-02-06T03:19:06.910Z,102845.19
2023-02-06T03:21:38.895Z,102840.10
2023-02-06T03:24:19.333Z,102836.05
2023-02-06T03:26:53.624Z,102839.22
2023-02-06T03:29:24.751Z,102839.23
2023-02-06T03:32:02.346Z,102835.34
2023-02-06T03:34:52.763Z,102834.30
2023-02-06T03:37:25.165Z,102833.61
2023-02-06T03:39:57.749Z,102830.66
2023-02-06T03:42:31.722Z,102833.69
2023-02-06T03:45:07.975Z,102830.92
2023-02-06T03:47:50.949Z,102827.94
2023-02-06T03:50:23.176Z,102821.88
2023-02-06T03:53:00.656Z,102819.00
2023-02-06T03:55:33.254Z,102817.44
2023-02-06T03:58:09.759Z,102815.21
2023-02-06T04:00:46.769Z,102816.89
2023-02-06T04:03:20.397Z,102816.24
2023-02-06T04:05:52.582Z,102823.08
2023-02-06T04:08:23.335Z,102822.71
2023-02-06T04:10:56.226Z,102825.84
2023-02-06T04:13:26.841Z,102825.23
2023-02-06T04:15:58.054Z,102826.16
2023-02-06T04:18:33.281Z,102832.33
2023-02-06T04:21:08.591Z,102835.70
2023-02-06T04:23:39.193Z,102840.23
2023-02-06T04:26:11.885Z,102844.55
2023-02-06T04:28:46.334Z,102845.19
2023-02-06T04:31:16.910Z,102842.09
2023-02-06T04:33:47.353Z,102840.77
2023-02-06T04:36:20.565Z,102838.87
2023-02-06T04:38:50.931Z,102839.72
2023-02-06T04:41:21.555Z,102846.18
2023-02-06T04:43:52.190Z,102849.09
2023-02-06T04:46:25.255Z,102843.75
2023-02-06T04:48:55.908Z,102847.52
2023-02-06T04:51:26.282Z,102848.09
2023-02-06T04:53:56.740Z,102850.86
2023-02-06T04:56:29.216Z,102851.67
2023-02-06T04:59:01.576Z,102856.02
2023-02-06T05:01:32.269Z,102853.09
2023-02-06T05:04:02.954Z,102856.14
2023-02-06T05:06:38.491Z,102859.50
2023-02-06T05:09:11.868Z,102858.08
2023-02-06T05:11:45.015Z,102858.23
2023-02-06T05:14:15.419Z,102863.11
2023-02-06T05:16:50.027Z,102867.86
2023-02-06T05:19:24.173Z,102868.95
2023-02-06T05:21:54.844Z,102865.35
2023-02-06T05:24:25.604Z,102865.34
2023-02-06T05:26:58.768Z,102869.60
2023-02-06T05:29:29.256Z,102869.45
2023-02-06T05:32:03.323Z,102874.83
2023-02-06T05:34:33.824Z,102874.27
2023-02-06T05:37:08.538Z,102878.36
2023-02-06T05:39:50.177Z,102877.20
2023-02-06T05:42:28.752Z,102871.70
2023-02-06T05:45:02.078Z,102875.23
2023-02-06T05:47:32.401Z,102877.09
2023-02-06T05:50:02.958Z,102873.14
2023-02-06T05:53:19.787Z,102871.85
2023-02-06T05:56:20.816Z,102879.98
2023-02-06T05:58:57.637Z,102879.40
2023-02-06T06:01:30.869Z,102876.50
2023-02-06T06:04:01.316Z,102874.28
2023-02-06T06:06:31.907Z,102876.61
2023-02-06T06:09:05.065Z,102875.81
2023-02-06T06:11:35.691Z,102878.27
2023-02-06T06:14:08.910Z,102878.79
2023-02-06T06:16:55.745Z,102877.13
2023-02-06T06:19:27.330Z,102873.77
2023-02-06T06:21:58.385Z,102876.31
2023-02-06T06:24:32.028Z,102881.98
2023-02-06T06:27:30.099Z,102881.41
2023-02-06T06:30:41.705Z,102885.14
2023-02-06T06:34:45.955Z,102883.50
2023-02-06T06:37:34.103Z,102884.65
2023-02-06T06:40:06.263Z,102888.59
2023-02-06T06:43:19.424Z,102887.91
2023-02-06T06:46:14.542Z,102892.08
2023-02-06T06:49:20.044Z,102890.34
2023-02-06T06:51:58.161Z,102892.41
2023-02-06T06:54:32.267Z,102887.80
2023-02-06T06:57:06.144Z,102896.92
2023-02-06T06:59:37.834Z,102905.37
2023-02-06T07:02:10.213Z,102914.42
2023-02-06T07:04:55.721Z,102910.93
2023-02-06T07:07:32.082Z,102904.83
2023-02-06T07:10:11.740Z,102906.69
2023-02-06T07:13:19.360Z,102913.58
2023-02-06T07:21:32.392Z,102921.09
2023-02-06T07:24:19.190Z,102917.84
2023-02-06T07:26:49.548Z,102920.13
2023-02-06T07:29:20.459Z,102919.86
2023-02-06T07:31:51.425Z,102921.68
2023-02-06T07:34:23.011Z,102919.73
2023-02-06T07:37:01.414Z,102920.38
2023-02-06T07:39:34.389Z,102910.77
2023-02-06T07:42:04.982Z,102902.67
2023-02-06T07:44:47.340Z,102903.08
2023-02-06T07:47:18.236Z,102905.58
2023-02-06T07:49:48.595Z,102910.38
2023-02-06T07:52:31.080Z,102910.71
2023-02-06T07:55:01.719Z,102910.73
2023-02-06T07:57:32.614Z,102908.77
2023-02-06T08:00:05.339Z,102902.70
2023-02-06T08:02:42.706Z,102904.94
2023-02-06T08:05:13.431Z,102904.27
2023-02-06T08:07:46.034Z,102900.17
2023-02-06T08:10:17.192Z,102903.77
2023-02-06T08:12:50.876Z,102902.02
2023-02-06T08:15:21.692Z,102902.30
2023-02-06T08:17:52.357Z,102897.39
2023-02-06T08:20:30.042Z,102903.26
2023-02-06T08:23:00.639Z,102909.13
2023-02-06T08:25:35.451Z,102910.90
2023-02-06T08:28:06.775Z,102912.06
2023-02-06T08:30:39.661Z,102905.58
2023-02-06T08:33:12.692Z,102895.74
2023-02-06T08:35:43.475Z,102898.25
2023-02-06T08:38:15.467Z,102902.92
2023-02-06T08:40:48.789Z,102904.31
2023-02-06T08:43:25.176Z,102899.48
2023-02-06T08:45:57.961Z,102900.89
2023-02-06T08:48:28.765Z,102901.05
2023-02-06T08:51:10.567Z,102900.84
2023-02-06T08:53:41.596Z,102898.02
2023-02-06T08:56:15.502Z,102896.52
2023-02-06T08:58:46.112Z,102900.42
2023-02-06T09:01:19.185Z,102906.31
2023-02-06T09:04:04.881Z,102914.60
2023-02-06T09:06:40.511Z,102909.71
2023-02-06T09:09:12.206Z,102913.36
2023-02-06T09:11:45.439Z,102918.95
2023-02-06T09:14:18.228Z,102925.47
2023-02-06T09:16:50.944Z,102929.97
2023-02-06T09:19:22.982Z,102930.59
2023-02-06T09:21:55.949Z,102932.98
2023-02-06T09:24:27.594Z,102939.56
2023-02-06T09:27:01.091Z,102946.16
2023-02-06T09:29:33.279Z,102948.38
2023-02-06T09:32:03.751Z,102944.41
2023-02-06T09:34:34.206Z,102948.49
2023-02-06T09:37:07.243Z,102949.11
2023-02-06T09:39:41.198Z,102946.09
2023-02-06T09:42:19.772Z,102945.19
2023-02-06T09:44:59.722Z,102947.92
2023-02-06T09:47:37.975Z,102950.17
2023-02-06T09:50:34.622Z,102946.19
2023-02-06T09:53:49.923Z,102936.29
2023-02-06T09:56:48.863Z,102937.05
2023-02-06T09:59:38.797Z,102936.98
2023-02-06T10:02:50.242Z,102934.17
2023-02-06T10:05:37.633Z,102938.06
2023-02-06T10:08:32.350Z,102933.17
2023-02-06T10:11:31.690Z,102931.75
2023-02-06T10:14:07.533Z,102926.76
2023-02-06T10:17:07.162Z,102919.27
2023-02-06T10:20:04.546Z,102916.63
2023-02-06T10:23:03.287Z,102915.91
2023-02-06T10:25:37.933Z,102910.64
2023-02-06T10:28:30.033Z,102906.76
2023-02-06T10:31:28.716Z,102912.79
2023-02-06T10:34:21.110Z,102916.09
2023-02-06T10:37:10.078Z,102916.14
2023-02-06T10:40:04.314Z,102914.01
2023-02-06T10:42:42.266Z,102915.67
2023-02-06T10:45:20.287Z,102920.64
2023-02-06T10:47:58.308Z,102924.85
2023-02-06T10:50:37.917Z,102928.04
2023-02-06T10:53:41.113Z,102931.00
2023-02-06T10:56:15.462Z,102932.91
2023-02-06T10:58:55.386Z,102933.61
2023-02-06T11:01:27.684Z,102936.20
2023-02-06T11:04:36.106Z,102934.75
2023-02-06T11:07:25.898Z,102939.59
2023-02-06T11:09:57.840Z,102940.44
2023-02-06T11:12:39.114Z,102940.34
2023-02-06T11:15:45.247Z,102941.52
2023-02-06T11:18:23.744Z,102940.88
2023-02-06T11:20:56.163Z,102943.41
2023-02-06T11:23:29.672Z,102938.66
2023-02-06T11:26:15.732Z,102930.23
2023-02-06T11:29:00.893Z,102928.02
2023-02-06T11:31:53.022Z,102923.05
2023-02-06T11:34:31.484Z,102916.02
2023-02-06T11:37:08.576Z,102917.48
2023-02-06T11:39:41.491Z,102913.63
2023-02-06T11:42:23.881Z,102914.28
2023-02-06T11:44:55.722Z,102913.92
2023-02-06T11:47:39.533Z,102915.67
2023-02-06T11:51:02.098Z,102914.98
2023-02-06T11:54:52.003Z,102914.75
2023-02-06T11:57:48.080Z,102911.16
2023-02-06T12:00:52.766Z,102912.55
2023-02-06T12:03:47.039Z,102905.80
2023-02-06T12:06:26.155Z,102908.92
2023-02-06T12:09:06.977Z,102907.75
2023-02-06T12:11:56.685Z,102906.13
2023-02-06T12:14:51.237Z,102902.24
2023-02-06T12:17:39.813Z,102897.81
2023-02-06T12:24:31.526Z,102888.18
2023-02-06T12:27:06.902Z,102885.09
2023-02-06T12:29:44.851Z,102887.51
2023-02-06T12:56:04.633Z,102861.55
2023-02-06T12:59:16.845Z,102861.25
2023-02-06T13:02:21.415Z,102877.42
2023-02-06T13:04:57.647Z,102875.36
2023-02-06T13:07:28.994Z,102878.95
2023-02-06T13:14:26.790Z,102875.95
2023-02-06T13:30:35.746Z,102868.19
2023-02-06T13:33:16.704Z,102872.98
2023-02-06T13:36:07.209Z,102872.78
2023-02-06T13:38:42.626Z,102874.81
2023-02-06T13:41:17.232Z,102876.34
2023-02-06T13:43:57.196Z,102880.74
2023-02-06T13:46:56.432Z,102881.17
2023-02-06T13:50:08.372Z,102886.52
2023-02-06T13:52:50.096Z,102885.47
2023-02-06T13:55:45.097Z,102894.13
2023-02-06T13:58:40.436Z,102902.08
2023-02-06T14:01:23.477Z,102907.34
2023-02-06T14:03:56.472Z,102911.80
2023-02-06T14:06:41.880Z,102913.46
2023-02-06T14:10:10.709Z,102912.27
2023-02-06T14:13:09.481Z,102916.64
2023-02-06T14:15:59.160Z,102917.01
2023-02-06T14:18:57.613Z,102923.98
2023-02-06T14:21:57.641Z,102919.91
2023-02-06T14:24:48.409Z,102926.73
2023-02-06T14:28:06.994Z,102932.20
2023-02-06T14:31:00.446Z,102935.89
2023-02-06T14:33:37.203Z,102936.27
2023-02-06T14:36:41.353Z,102938.48
2023-02-06T14:39:34.501Z,102935.34
2023-02-06T14:42:29.399Z,102939.02
2023-02-06T14:45:07.190Z,102937.32
2023-02-06T14:47:44.704Z,102934.21
2023-02-06T14:50:31.605Z,102935.40
2023-02-06T14:53:29.327Z,102935.98
2023-02-06T14:56:32.892Z,102936.25
2023-02-06T14:59:20.574Z,102931.40
2023-02-06T15:01:54.562Z,102925.16
2023-02-06T15:04:30.603Z,102920.85
2023-02-06T15:07:08.839Z,102923.44
2023-02-06T15:09:47.169Z,102928.23
2023-02-06T15:12:24.372Z,102933.78
2023-02-06T15:14:58.835Z,102932.59
2023-02-06T15:17:33.389Z,102935.83
2023-02-06T15:20:40.938Z,102939.05
2023-02-06T15:23:40.760Z,102941.27
2023-02-06T15:26:27.494Z,102955.34
2023-02-06T15:29:05.074Z,102965.26
2023-02-06T15:31:36.818Z,102961.78
2023-02-06T15:34:08.005Z,102968.13
2023-02-06T15:36:44.026Z,102971.14
2023-02-06T15:39:22.333Z,102976.06
2023-02-06T15:42:17.273Z,102980.68
2023-02-06T15:45:10.789Z,102981.66
2023-02-06T15:47:44.969Z,102985.82
2023-02-06T15:50:23.682Z,102987.77
2023-02-06T15:52:54.808Z,102995.15
2023-02-06T15:55:38.214Z,102993.55
2023-02-06T15:58:09.798Z,102997.49
2023-02-06T16:00:43.695Z,103002.60
2023-02-06T16:07:21.199Z,103001.75
2023-02-06T16:10:16.106Z,103001.42
2023-02-06T16:13:26.748Z,103006.72
2023-02-06T16:16:29.680Z,103017.17
2023-02-06T16:19:04.479Z,103018.34
2023-02-06T16:21:40.422Z,103020.02
2023-02-06T16:24:19.671Z,103020.57
2023-02-06T16:26:53.184Z,103026.45
2023-02-06T16:29:35.275Z,103031.45
2023-02-06T16:32:20.033Z,103032.27
2023-02-06T16:34:51.500Z,103032.36
2023-02-06T16:38:01.457Z,103037.46
2023-02-06T16:40:37.989Z,103042.23
2023-02-06T16:43:21.851Z,103046.35
2023-02-06T16:46:07.635Z,103046.55
2023-02-06T16:49:19.334Z,103041.41
2023-02-06T16:52:47.256Z,103034.14
2023-02-06T17:00:01.026Z,103040.23
2023-02-06T17:02:50.957Z,103052.23
2023-02-06T17:05:35.321Z,103051.36
2023-02-06T17:08:28.066Z,103046.45
2023-02-06T17:11:13.004Z,103037.52
2023-02-06T17:13:57.242Z,103041.15
2023-02-06T17:16:33.591Z,103048.38
2023-02-06T17:19:21.627Z,103047.48
2023-02-06T17:21:57.825Z,103036.80
2023-02-06T17:24:36.950Z,103037.95
2023-02-06T17:27:25.550Z,103038.88
2023-02-06T17:30:00.804Z,103042.25
2023-02-06T17:32:37.887Z,103038.51
2023-02-06T17:35:17.207Z,103044.46
2023-02-06T17:37:53.984Z,103046.45
2023-02-06T17:40:37.447Z,103049.33
2023-02-06T17:43:22.051Z,103049.89
2023-02-06T17:45:56.482Z,103046.67
2023-02-06T17:48:36.635Z,103051.27
2023-02-06T17:51:18.740Z,103051.58
2023-02-06T17:53:59.023Z,103050.47
2023-02-06T17:56:37.298Z,103045.05
2023-02-06T17:59:21.629Z,103047.70
2023-02-06T18:02:03.868Z,103045.59
2023-02-06T18:04:55.737Z,103045.30
2023-02-06T18:07:50.111Z,103038.82
2023-02-06T18:10:24.728Z,103031.21
2023-02-06T18:12:59.434Z,103022.98
2023-02-06T18:15:34.357Z,103029.56
2023-02-06T18:18:07.109Z,103035.13
2023-02-06T18:20:43.515Z,103034.42
2023-02-06T18:23:22.451Z,103030.28
2023-02-06T18:25:55.043Z,103028.71
2023-02-06T18:28:34.724Z,103027.23
2023-02-06T18:31:08.627Z,103022.70
2023-02-06T18:33:41.002Z,103020.26
2023-02-06T18:36:16.160Z,103018.13
2023-02-06T18:38:50.307Z,103027.70
2023-02-06T18:41:40.610Z,103032.47
2023-02-06T18:44:16.448Z,103030.29
2023-02-06T18:46:53.368Z,103031.30
2023-02-06T18:49:27.035Z,103033.15
2023-02-06T18:52:03.237Z,103035.24
2023-02-06T18:54:42.938Z,103038.38
2023-02-06T18:57:16.652Z,103034.20
2023-02-06T18:59:50.472Z,103029.41
2023-02-06T19:02:23.615Z,103035.77
2023-02-06T19:05:06.929Z,103036.04
2023-02-06T19:07:43.114Z,103030.98
2023-02-06T19:10:18.957Z,103030.22
2023-02-06T19:13:08.821Z,103027.41
2023-02-06T19:15:49.284Z,103024.81
2023-02-06T19:18:38.748Z,103018.20
2023-02-06T19:22:24.949Z,103014.63
2023-02-06T19:29:16.772Z,103011.92
2023-02-06T19:59:04.904Z,103050.89
2023-02-06T20:02:02.703Z,103061.73
2023-02-06T20:05:32.753Z,103047.09
2023-02-06T20:08:08.942Z,103047.34
2023-02-06T20:10:46.732Z,103056.73
2023-02-06T20:26:11.929Z,103037.52
2023-02-06T20:51:16.649Z,103047.96
2023-02-06T20:55:02.045Z,103041.49
2023-02-06T20:57:53.847Z,103040.30
2023-02-06T21:01:40.136Z,103035.45
2023-02-06T21:23:07.865Z,103043.89
2023-02-06T21:58:22.244Z,103080.22
2023-02-06T22:01:05.341Z,103078.14
2023-02-06T22:03:51.126Z,103071.38
2023-02-06T22:07:04.502Z,103070.41
2023-02-06T22:19:32.512Z,103090.45
2023-02-06T22:22:14.576Z,103093.19
2023-02-06T22:25:01.553Z,103094.95
2023-02-06T22:27:39.373Z,103097.35
2023-02-06T22:30:15.299Z,103103.98
2023-02-06T22:33:03.258Z,103111.05
2023-02-06T22:36:11.523Z,103116.73
2023-02-06T22:39:29.393Z,103116.89
2023-02-06T22:42:27.302Z,103116.02
2023-02-06T22:45:06.998Z,103108.99
2023-02-06T22:47:43.675Z,103109.05
2023-02-06T22:50:21.663Z,103100.28
2023-02-06T22:53:13.395Z,103095.00
2023-02-06T22:56:05.573Z,103092.05
2023-02-06T22:58:38.198Z,103088.11
2023-02-06T23:01:14.665Z,103088.98
2023-02-06T23:04:31.169Z,103091.25
2023-02-06T23:07:03.663Z,103093.65
2023-02-06T23:09:37.618Z,103097.25
2023-02-06T23:12:10.162Z,103090.01
2023-02-06T23:14:45.042Z,103088.50
2023-02-06T23:17:18.058Z,103089.31
2023-02-06T23:19:50.518Z,103092.20
2023-02-06T23:22:23.552Z,103100.13
2023-02-06T23:24:57.181Z,103101.63
2023-02-06T23:27:29.918Z,103093.79
2023-02-06T23:30:01.457Z,103082.23
2023-02-06T23:32:36.946Z,103068.74
2023-02-06T23:35:09.431Z,103063.98
2023-02-06T23:37:43.711Z,103059.25
2023-02-06T23:40:17.818Z,103057.00
2023-02-06T23:42:48.705Z,103055.64
2023-02-06T23:45:22.907Z,103064.70
2023-02-06T23:47:59.019Z,103068.06
2023-02-06T23:50:30.424Z,103071.17
2023-02-06T23:53:01.263Z,103070.54
2023-02-06T23:55:32.776Z,103071.27
2023-02-06T23:58:03.882Z,103068.05
